Time;durP1;ratioP1;P1;durP2;ratioP2;P2;SDS_P1;SDS_P2;PMS_P1;PMS_P2;Temp;Humidity;BMP_temperature;BMP_pressure;BME280_temperature;BME280_humidity;BME280_pressure;Samples;Min_cycle;Max_cycle;Signal;HPM_P1;HPM_P2
2022/06/13 00:01:35;;;;;;;3.17;1.67;;;17.30;99.90;;;-141.84;48.32;19610.59;5030798;28;20254;-59
2022/06/13 00:04:07;;;;;;;2.42;1.25;;;17.30;99.90;;;-141.84;48.04;19641.09;5030673;28;20312;-59
2022/06/13 00:06:35;;;;;;;2.78;1.20;;;17.30;99.90;;;-141.84;47.53;19643.13;5030835;28;20217;-60
2022/06/13 00:09:07;;;;;;;2.28;1.55;;;17.30;99.90;;;-141.84;48.07;19622.81;5030931;28;20226;-61
2022/06/13 00:11:37;;;;;;;5.63;1.60;;;17.40;99.90;;;-141.84;48.31;19622.81;5030786;28;20872;-62
2022/06/13 00:14:06;;;;;;;2.70;1.30;;;17.40;99.90;;;-141.84;46.77;19671.56;5011347;28;20218;-60
2022/06/13 00:16:35;;;;;;;3.10;1.30;;;17.30;99.90;;;-141.84;46.59;19681.75;5010336;28;20305;-61
2022/06/13 00:19:04;;;;;;;2.90;1.67;;;17.40;99.90;;;-141.84;46.62;19669.53;5010445;28;20246;-62
2022/06/13 00:21:36;;;;;;;2.40;1.50;;;17.40;99.90;;;-141.84;46.61;19685.81;5010027;28;20226;-63
2022/06/13 00:24:07;;;;;;;5.13;1.60;;;17.50;99.90;;;-141.84;45.95;19683.78;5010798;28;20253;-62
2022/06/13 00:26:38;;;;;;;4.00;1.67;;;17.60;99.90;;;-141.84;46.13;19714.25;5011190;28;20269;-62
2022/06/13 00:29:06;;;;;;;3.03;1.50;;;17.60;99.90;;;-141.84;46.52;19724.41;4991222;28;20247;-60
2022/06/13 00:31:35;;;;;;;3.65;1.70;;;17.70;99.90;;;-141.84;46.13;19734.56;5007580;28;20306;-62
2022/06/13 00:34:03;;;;;;;4.32;1.50;;;17.80;99.90;;;-141.84;47.03;19689.88;5010502;28;20299;-61
2022/06/13 00:36:32;;;;;;;2.85;1.45;;;17.80;99.90;;;-141.84;47.13;19714.25;5010147;28;20688;-61
2022/06/13 00:39:00;;;;;;;2.95;1.50;;;17.80;99.90;;;-141.84;47.83;19659.38;5010383;28;20236;-59
2022/06/13 00:41:32;;;;;;;2.17;1.45;;;17.70;99.90;;;-141.84;48.14;19626.88;5010644;28;20305;-61
2022/06/13 00:44:12;;;;;;;3.53;1.60;;;17.60;99.90;;;-141.84;48.55;19635.00;5010208;28;20223;-60
2022/06/13 00:46:40;;;;;;;4.35;1.90;;;17.60;99.90;;;-141.84;48.08;19683.78;5008713;28;20306;-60
2022/06/13 00:49:14;;;;;;;2.60;1.70;;;17.60;99.90;;;-141.84;48.70;19630.94;5010055;28;20265;-62
2022/06/13 00:51:49;;;;;;;3.08;1.70;;;17.60;99.90;;;-141.84;49.63;19614.66;5009979;28;20369;-61
2022/06/13 00:54:20;;;;;;;2.92;1.40;;;17.50;99.90;;;-141.84;50.13;19588.25;5010356;28;20328;-61
2022/06/13 00:56:51;;;;;;;2.92;1.70;;;17.40;99.90;;;-141.84;49.83;19612.63;5010001;28;20190;-60
2022/06/13 00:59:25;;;;;;;6.30;1.83;;;17.40;99.90;;;-141.84;50.17;19567.94;5010321;28;20652;-60
2022/06/13 01:01:53;;;;;;;3.38;1.67;;;17.30;99.90;;;-141.84;50.71;19604.50;4990364;28;20233;-61
2022/06/13 01:04:21;;;;;;;7.68;2.38;;;17.30;99.90;;;-141.84;50.96;19569.97;4990414;28;20330;-61
2022/06/13 01:06:52;;;;;;;2.40;1.63;;;17.30;99.90;;;-141.84;51.61;19557.78;4990366;28;20237;-60
2022/06/13 01:11:16;;;;;;;4.78;1.60;;;17.20;99.90;;;-141.84;51.80;19580.13;4990300;28;20227;-61
2022/06/13 01:12:13;;;;;;;3.10;1.70;;;17.10;99.90;;;-141.84;52.42;19515.09;4991881;28;20216;-62
2022/06/13 01:15:16;;;;;;;4.95;1.90;;;17.10;99.90;;;-141.84;52.33;19488.69;5010337;28;20601;-62
2022/06/13 01:18:03;;;;;;;4.43;1.98;;;17.10;99.90;;;-141.84;52.16;19543.53;5009524;28;20190;-60
2022/06/13 01:20:49;;;;;;;3.83;1.88;;;17.10;99.90;;;-141.84;52.43;19543.53;5010178;28;20302;-60
2022/06/13 01:23:46;;;;;;;4.18;1.92;;;17.10;99.90;;;-141.84;53.08;19523.22;5010664;28;20741;-60
2022/06/13 01:26:58;;;;;;;5.90;2.08;;;17.10;99.90;;;-141.84;53.49;19496.81;5029619;28;20684;-61
2022/06/13 01:29:51;;;;;;;4.18;2.05;;;17.00;99.90;;;-141.84;53.25;19506.97;5029536;28;20281;-60
2022/06/13 01:32:53;;;;;;;4.20;2.05;;;17.00;99.90;;;-141.84;53.65;19492.75;5030988;28;20554;-61
2022/06/13 01:35:49;;;;;;;4.75;2.20;;;17.00;99.90;;;-141.84;52.96;19535.41;5033671;28;20229;-61
2022/06/13 01:38:42;;;;;;;3.45;1.70;;;17.10;99.90;;;-141.84;53.91;19476.47;5033664;28;20232;-61
2022/06/13 01:41:18;;;;;;;5.63;2.47;;;17.00;99.90;;;-141.84;53.83;19492.75;5033292;28;20765;-61
2022/06/13 01:43:59;;;;;;;5.15;2.10;;;17.00;99.90;;;-141.84;53.35;19531.34;5033443;28;20232;-61
2022/06/13 01:46:35;;;;;;;3.85;1.90;;;17.00;99.90;;;-141.84;54.47;19472.41;5032815;28;20229;-61
2022/06/13 01:49:26;;;;;;;5.38;2.15;;;17.00;99.90;;;-141.84;54.86;19476.47;5033125;28;20229;-60
2022/06/13 01:52:02;;;;;;;4.18;2.17;;;16.90;99.90;;;-141.84;55.41;19472.41;5032929;28;20228;-60
2022/06/13 01:54:44;;;;;;;4.55;2.40;;;16.90;99.90;;;-141.84;56.08;19446.00;5033357;28;20233;-61
2022/06/13 01:57:27;;;;;;;6.18;2.13;;;16.90;99.90;;;-141.84;56.73;19409.41;5032973;28;20226;-61
2022/06/13 02:00:07;;;;;;;5.13;2.35;;;16.80;99.90;;;-141.84;57.07;19401.28;5033172;28;20198;-59
2022/06/13 02:02:46;;;;;;;5.63;2.60;;;16.80;99.90;;;-141.84;58.03;19389.09;5033122;28;20224;-60
2022/06/13 02:05:24;;;;;;;5.32;2.50;;;16.70;99.90;;;-141.84;58.14;19380.97;5013725;28;20209;-60
2022/06/13 02:07:59;;;;;;;4.22;2.33;;;16.60;99.90;;;-141.84;58.70;19340.31;5012921;28;20226;-60
2022/06/13 02:10:56;;;;;;;5.45;2.55;;;16.60;99.90;;;-141.84;60.14;19326.09;4993011;28;20600;-59
2022/06/13 02:13:34;;;;;;;3.97;2.35;;;16.40;99.90;;;-141.84;60.20;19309.84;4993260;28;20605;-59
2022/06/13 02:16:10;;;;;;;5.43;2.10;;;16.40;99.90;;;-141.84;60.84;19299.69;4995958;28;20223;-60
2022/06/13 02:18:50;;;;;;;3.47;2.10;;;16.30;99.90;;;-141.84;62.01;19273.28;5021315;28;20249;-60
2022/06/13 02:21:26;;;;;;;5.35;2.35;;;16.30;99.90;;;-141.84;61.41;19313.91;5032674;28;20225;-58
2022/06/13 02:23:59;;;;;;;4.45;2.50;;;16.20;99.90;;;-141.84;61.83;19291.56;5033189;28;20216;-60
2022/06/13 02:26:35;;;;;;;6.20;2.63;;;16.20;99.90;;;-141.84;62.17;19273.28;5033227;28;20289;-60
2022/06/13 02:29:11;;;;;;;4.22;2.17;;;16.20;99.90;;;-141.84;62.21;19269.22;5012977;28;20279;-59
2022/06/13 02:31:48;;;;;;;6.72;2.58;;;16.20;99.90;;;-141.84;63.33;19238.72;5012224;28;20261;-60
2022/06/13 02:34:24;;;;;;;5.10;2.67;;;16.10;99.90;;;-141.84;63.92;19234.66;5012691;28;20567;-60
2022/06/13 02:37:00;;;;;;;5.68;2.70;;;16.00;99.90;;;-141.84;64.38;19196.06;5012465;28;20229;-60
2022/06/13 02:39:34;;;;;;;4.90;2.65;;;15.90;99.90;;;-141.84;63.88;19248.88;5012749;28;20218;-59
2022/06/13 02:42:11;;;;;;;4.55;2.47;;;16.00;99.90;;;-141.84;64.69;19183.84;5012121;28;20225;-59
2022/06/13 02:44:45;;;;;;;5.45;2.75;;;16.00;99.90;;;-141.84;65.13;19185.88;5011753;28;20270;-59
2022/06/13 02:47:21;;;;;;;3.55;2.30;;;15.90;99.90;;;-141.84;65.85;19171.66;5012848;28;20257;-60
2022/06/13 02:49:58;;;;;;;4.10;2.38;;;15.90;99.90;;;-141.84;66.14;19179.78;5011924;28;20638;-61
2022/06/13 02:52:37;;;;;;;5.60;2.33;;;15.90;99.90;;;-141.84;64.86;19196.06;5012162;28;20305;-60
2022/06/13 02:55:10;;;;;;;5.70;2.88;;;16.00;99.90;;;-141.84;64.36;19222.47;5012521;28;20765;-58
2022/06/13 02:58:06;;;;;;;5.63;2.90;;;16.10;99.90;;;-141.84;64.55;19242.78;5012761;28;20206;-59
2022/06/13 03:00:56;;;;;;;3.88;2.70;;;16.10;99.90;;;-141.84;64.35;19216.38;5003194;28;20676;-60
2022/06/13 03:03:41;;;;;;;5.47;3.00;;;16.10;99.90;;;-141.84;64.43;19200.13;4992290;28;20184;-59
2022/06/13 03:06:22;;;;;;;4.90;2.70;;;16.10;99.90;;;-141.84;64.71;19220.44;4992412;28;20215;-60
2022/06/13 03:09:04;;;;;;;2.88;2.47;;;16.10;99.90;;;-141.84;65.02;19187.91;4992724;28;20591;-60
2022/06/13 03:11:51;;;;;;;6.55;2.88;;;16.10;99.90;;;-141.84;65.13;19216.38;4992526;28;20270;-59
2022/06/13 03:14:35;;;;;;;7.45;2.90;;;16.10;99.90;;;-141.84;65.11;19194.03;4992367;28;20222;-60
2022/06/13 03:17:18;;;;;;;5.38;2.67;;;16.10;99.90;;;-141.84;65.87;19179.78;4992740;28;20239;-60
2022/06/13 03:19:54;;;;;;;6.78;3.03;;;16.10;99.90;;;-141.84;64.62;19206.22;4992850;28;20270;-59
2022/06/13 03:22:34;;;;;;;6.13;2.92;;;16.10;99.90;;;-141.84;65.34;19208.25;4992649;28;20180;-59
2022/06/13 03:25:18;;;;;;;5.00;2.97;;;16.10;99.90;;;-141.84;66.15;19163.53;4992333;28;20180;-59
2022/06/13 03:27:53;;;;;;;4.97;3.05;;;16.00;99.90;;;-141.84;66.42;19177.75;4992722;28;20192;-62
2022/06/13 03:30:26;;;;;;;6.15;3.40;;;16.00;99.90;;;-141.84;66.32;19167.59;4992350;28;20209;-58
2022/06/13 03:35:56;;;;;;;6.38;3.10;;;15.90;99.90;;;-141.84;67.33;19124.94;5011772;28;20291;-59
2022/06/13 03:38:37;;;;;;;4.88;3.00;;;15.80;99.90;;;-141.84;67.31;19143.22;5011750;28;20266;-60
2022/06/13 03:41:13;;;;;;;5.90;2.65;;;15.80;99.90;;;-141.84;67.29;19151.34;5011588;28;20269;-60
2022/06/13 03:43:47;;;;;;;6.05;3.08;;;15.90;99.90;;;-141.84;67.24;19153.38;5011890;28;20313;-60
2022/06/13 03:46:27;;;;;;;5.88;2.70;;;15.90;99.90;;;-141.84;67.92;19141.19;5011584;28;20187;-59
2022/06/13 03:49:02;;;;;;;4.47;2.95;;;15.80;99.90;;;-141.84;68.53;19092.41;5011589;28;20187;-61
2022/06/13 03:51:38;;;;;;;4.93;3.10;;;15.80;99.90;;;-141.84;67.41;19137.13;5011674;28;20659;-61
2022/06/13 03:54:13;;;;;;;4.55;2.92;;;15.90;99.90;;;-141.84;67.02;19118.84;5011420;28;20209;-59
2022/06/13 03:56:52;;;;;;;6.05;3.10;;;15.90;99.90;;;-141.84;66.78;19143.22;5011244;28;20639;-60
2022/06/13 03:59:26;;;;;;;4.18;3.20;;;16.00;99.90;;;-141.84;66.43;19139.16;5003406;28;20249;-59
2022/06/13 04:01:59;;;;;;;8.15;2.85;;;16.00;99.90;;;-141.84;67.07;19153.38;5000468;28;20306;-62
2022/06/13 04:04:38;;;;;;;5.22;2.60;;;16.00;99.90;;;-141.84;66.51;19122.91;5010688;28;20788;-61
2022/06/13 04:07:06;;;;;;;4.63;2.90;;;16.00;99.90;;;-141.84;67.49;19135.09;5010881;28;20254;-60
2022/06/13 04:09:40;;;;;;;5.00;2.75;;;16.00;99.90;;;-141.84;66.35;19171.66;5011188;28;20232;-59
2022/06/13 04:12:52;;;;;;;7.63;3.15;;;16.10;99.90;;;-141.84;66.59;19155.41;5010401;28;20232;-60
2022/06/13 04:15:53;;;;;;;4.43;2.75;;;16.10;99.90;;;-141.84;66.56;19145.25;5016772;28;20313;-59
2022/06/13 04:18:38;;;;;;;4.25;3.10;;;16.10;99.90;;;-141.84;65.94;19163.53;5031188;28;20233;-60
2022/06/13 04:21:23;;;;;;;5.00;3.00;;;16.10;99.90;;;-141.84;65.16;19171.66;5031159;28;20614;-60
2022/06/13 04:24:04;;;;;;;6.75;3.15;;;16.20;99.90;;;-141.84;65.39;19183.84;5031062;28;20196;-59
2022/06/13 04:26:45;;;;;;;7.20;3.17;;;16.20;99.90;;;-141.84;64.32;19210.28;5030532;28;20236;-59
2022/06/13 04:29:29;;;;;;;6.45;3.25;;;16.30;99.90;;;-141.84;63.77;19210.28;5031031;28;20615;-60
2022/06/13 04:32:05;;;;;;;4.05;2.83;;;16.40;99.90;;;-141.84;63.66;19218.41;5011475;28;20593;-62
2022/06/13 04:34:44;;;;;;;3.72;2.78;;;16.40;99.90;;;-141.84;63.26;19240.75;5011097;28;20741;-60
2022/06/13 04:37:15;;;;;;;6.43;2.92;;;16.50;99.90;;;-141.84;63.01;19244.81;5011331;28;20282;-60
2022/06/13 04:39:47;;;;;;;5.43;2.90;;;16.50;99.90;;;-141.84;61.43;19269.22;5011479;28;20227;-61
2022/06/13 04:42:21;;;;;;;6.35;3.05;;;16.70;99.90;;;-141.84;61.05;19289.53;5011219;28;20238;-60
2022/06/13 04:44:52;;;;;;;4.97;2.47;;;16.80;99.90;;;-141.84;60.82;19354.56;5011307;28;20186;-60
2022/06/13 04:47:20;;;;;;;6.70;3.08;;;17.00;99.90;;;-141.84;58.21;19429.75;5011122;28;20185;-59
2022/06/13 04:49:54;;;;;;;7.28;3.08;;;17.30;99.90;;;-141.84;55.35;19523.22;5010814;28;20297;-61
2022/06/13 04:52:30;;;;;;;5.60;2.63;;;17.70;99.90;;;-141.84;51.19;19689.88;5011254;28;20213;-59
2022/06/13 04:55:06;;;;;;;5.53;2.45;;;18.30;99.90;;;-141.84;50.19;19754.91;5011202;28;20268;-60
2022/06/13 04:57:35;;;;;;;3.65;2.47;;;18.60;99.90;;;-141.84;50.97;19704.09;5010701;28;20191;-59
2022/06/13 05:00:08;;;;;;;4.32;2.60;;;18.60;99.90;;;-141.84;51.07;19718.31;5012948;28;20202;-59
2022/06/13 05:02:42;;;;;;;6.18;2.97;;;18.90;99.90;;;-141.84;47.22;19821.97;5010166;28;20294;-60
2022/06/13 05:05:36;;;;;;;5.78;2.28;;;19.20;99.90;;;-141.84;43.22;20061.78;5010219;28;20209;-60
2022/06/13 05:08:14;;;;;;;5.43;2.50;;;20.30;99.90;;;-141.84;41.79;20189.84;4990228;28;20208;-59
2022/06/13 05:10:45;;;;;;;4.60;2.30;;;20.90;99.90;;;-141.84;39.31;20447.97;4990260;28;20309;-59
2022/06/13 05:13:13;;;;;;;5.63;2.40;;;21.80;99.90;;;-141.84;37.48;20683.78;5000162;28;20615;-61
2022/06/13 05:15:49;;;;;;;6.13;2.30;;;22.70;99.90;;;-141.84;34.87;20944.00;5018660;28;20234;-60
2022/06/13 05:18:52;;;;;;;4.20;2.13;;;23.80;99.90;;;-141.84;34.88;20797.63;5023861;28;20246;-59
2022/06/13 05:21:43;;;;;;;3.78;2.15;;;23.30;99.90;;;-141.84;35.65;20716.31;5009530;28;20736;-60
2022/06/13 05:24:51;;;;;;;6.35;2.20;;;23.20;99.90;;;-141.84;35.35;20698.00;5010059;28;20747;-61
2022/06/13 05:27:19;;;;;;;4.40;2.42;;;22.80;99.90;;;-141.84;36.63;20533.34;5009864;28;20590;-60
2022/06/13 05:29:48;;;;;;;6.20;2.30;;;21.90;99.90;;;-141.84;37.95;20368.72;5009715;28;20209;-61
2022/06/13 05:32:22;;;;;;;5.00;2.08;;;21.40;99.90;;;-141.84;40.14;20175.63;4997196;28;20204;-60
2022/06/13 05:34:52;;;;;;;3.70;1.95;;;20.70;99.90;;;-141.84;42.25;20019.13;4989785;28;20230;-61
2022/06/13 05:37:20;;;;;;;4.32;2.10;;;20.10;99.90;;;-141.84;43.76;19962.19;4989836;28;20231;-61
2022/06/13 05:39:49;;;;;;;5.53;2.33;;;19.40;99.90;;;-141.84;43.97;19891.06;4989987;28;20456;-60
2022/06/13 05:42:17;;;;;;;5.50;2.03;;;19.10;99.90;;;-141.84;43.58;19917.50;4990343;28;20307;-59
2022/06/13 05:44:45;;;;;;;5.82;1.92;;;19.00;99.90;;;-141.84;43.96;19840.25;4990191;28;20207;-58
2022/06/13 05:47:21;;;;;;;3.60;1.80;;;18.60;99.90;;;-141.84;44.81;19783.34;4990319;28;20295;-58
2022/06/13 05:49:49;;;;;;;4.40;2.03;;;18.30;99.90;;;-141.84;45.87;19754.91;4992481;28;20919;-60
2022/06/13 05:52:17;;;;;;;2.95;1.90;;;18.10;99.90;;;-141.84;46.31;19750.84;5009486;28;20261;-60
2022/06/13 05:54:45;;;;;;;3.33;1.92;;;18.10;99.90;;;-141.84;45.01;19805.72;5010219;28;20309;-59
2022/06/13 05:57:16;;;;;;;6.88;2.30;;;18.10;99.90;;;-141.84;44.12;19848.38;5009772;28;20241;-59
2022/06/13 05:59:50;;;;;;;4.32;1.80;;;18.30;99.90;;;-141.84;42.94;19893.09;5009944;28;20237;-60
2022/06/13 06:02:19;;;;;;;5.20;2.00;;;18.60;99.90;;;-141.84;42.58;19952.03;5010602;28;20202;-58
2022/06/13 06:04:47;;;;;;;4.30;2.28;;;18.90;99.90;;;-141.84;42.12;20000.81;5010178;28;20265;-60
2022/06/13 06:07:16;;;;;;;4.55;2.38;;;18.90;99.90;;;-141.84;42.85;19931.72;5009880;28;20597;-58
2022/06/13 06:09:44;;;;;;;3.72;2.00;;;19.00;99.90;;;-141.84;43.30;19891.06;4997714;28;20251;-59
2022/06/13 06:12:12;;;;;;;5.82;1.95;;;18.90;99.90;;;-141.84;44.22;19824.00;4990457;28;20237;-59
2022/06/13 06:14:40;;;;;;;5.57;2.13;;;18.60;99.90;;;-141.84;44.68;19799.63;4990730;28;20206;-59
2022/06/13 06:17:08;;;;;;;4.00;1.80;;;18.40;99.90;;;-141.84;44.83;19799.63;4990861;28;20204;-59
2022/06/13 06:19:38;;;;;;;5.15;1.95;;;18.20;99.90;;;-141.84;45.19;19779.28;4991903;28;20223;-59
2022/06/13 06:22:06;;;;;;;4.18;1.90;;;18.20;99.90;;;-141.84;44.59;19793.50;4993950;28;20234;-60
2022/06/13 06:24:34;;;;;;;4.32;1.90;;;18.30;99.90;;;-141.84;43.71;19840.25;4993632;28;20227;-61
2022/06/13 06:27:03;;;;;;;5.10;1.95;;;18.40;99.90;;;-141.84;43.68;19848.38;4993906;28;20306;-59
2022/06/13 06:29:31;;;;;;;3.00;1.90;;;18.50;99.90;;;-141.84;43.84;19870.75;4994443;28;20233;-59
2022/06/13 06:31:59;;;;;;;3.60;1.83;;;18.50;99.90;;;-141.84;44.16;19826.03;5002799;28;20231;-59
2022/06/13 06:34:28;;;;;;;3.33;1.75;;;18.40;99.90;;;-141.84;43.97;19933.75;4993933;28;20605;-62
2022/06/13 06:36:57;;;;;;;4.18;2.03;;;18.70;99.90;;;-141.84;42.19;19962.19;4993564;28;20310;-59
2022/06/13 06:39:25;;;;;;;3.80;1.90;;;19.10;99.90;;;-141.84;41.59;20074.00;4993308;28;20245;-60
2022/06/13 06:41:53;;;;;;;4.20;1.90;;;19.50;99.90;;;-141.84;41.03;20094.31;4993821;28;20211;-61
2022/06/13 06:44:26;;;;;;;7.20;2.67;;;19.90;99.90;;;-141.84;39.91;20210.16;4993673;28;20202;-61
2022/06/13 06:46:54;;;;;;;7.03;2.35;;;20.30;99.90;;;-141.84;40.04;20159.34;4993332;28;20716;-61
2022/06/13 06:49:22;;;;;;;5.13;1.92;;;20.30;99.90;;;-141.84;40.08;20151.22;4993040;28;20321;-60
2022/06/13 06:51:50;;;;;;;4.80;2.10;;;20.30;99.90;;;-141.84;40.18;20151.22;5012154;28;20706;-62
2022/06/13 06:59:55;;;;;;;4.05;2.20;;;20.70;99.90;;;-141.84;38.30;20301.63;5012458;28;20292;-61
2022/06/13 07:02:26;;;;;;;7.40;2.20;;;20.90;99.90;;;-141.84;39.20;20175.63;5012837;28;20249;-61
2022/06/13 07:04:59;;;;;;;5.07;2.05;;;20.70;99.90;;;-141.84;39.32;20202.03;5009094;28;20260;-60
2022/06/13 07:07:28;;;;;;;5.20;1.98;;;20.60;99.90;;;-141.84;40.17;20153.25;5012267;28;20305;-61
2022/06/13 07:09:57;;;;;;;5.25;2.33;;;20.30;99.90;;;-141.84;39.84;20159.34;5012338;28;20241;-60
2022/06/13 07:12:26;;;;;;;4.00;2.08;;;20.30;99.90;;;-141.84;39.91;20132.94;5012607;28;20309;-61
2022/06/13 07:14:54;;;;;;;3.75;2.00;;;20.20;99.90;;;-141.84;40.53;20118.69;5012408;28;20345;-60
2022/06/13 07:17:22;;;;;;;4.13;1.75;;;20.00;99.90;;;-141.84;40.48;20134.97;5012355;28;20823;-62
2022/06/13 07:19:50;;;;;;;5.30;1.98;;;19.80;99.90;;;-141.84;40.46;20084.16;5011847;28;20310;-61
2022/06/13 07:22:23;;;;;;;5.80;2.22;;;19.80;99.90;;;-141.84;40.74;20074.00;5011899;28;20250;-60
2022/06/13 07:24:52;;;;;;;4.30;2.20;;;19.70;99.90;;;-141.84;40.92;20096.34;5012149;28;20222;-61
2022/06/13 07:27:21;;;;;;;4.35;2.08;;;19.90;99.90;;;-141.84;39.59;20149.19;5009533;28;20222;-61
2022/06/13 07:29:50;;;;;;;6.25;2.13;;;20.00;99.90;;;-141.84;39.64;20147.16;4994776;28;20215;-61
2022/06/13 07:32:21;;;;;;;4.93;2.50;;;20.10;99.90;;;-141.84;39.18;20210.16;5012622;28;20306;-60
2022/06/13 07:34:53;;;;;;;6.22;2.13;;;20.20;99.90;;;-141.84;39.54;20193.91;5011391;28;20246;-61
2022/06/13 07:40:15;;;;;;;5.07;2.00;;;20.10;99.90;;;-141.84;39.78;20183.75;4986721;28;20222;-59
2022/06/13 07:42:48;;;;;;;4.60;2.40;;;20.30;99.90;;;-141.84;38.44;20246.75;5011903;28;20253;-59
2022/06/13 07:45:21;;;;;;;5.38;2.50;;;20.50;99.90;;;-141.84;38.20;20250.81;5011638;28;20249;-59
2022/06/13 07:48:10;;;;;;;4.18;1.88;;;20.80;99.90;;;-141.84;38.17;20273.19;4992058;28;20234;-61
2022/06/13 07:50:40;;;;;;;4.70;2.30;;;20.70;99.90;;;-141.84;38.49;20279.28;5001298;28;20670;-59
2022/06/13 07:53:09;;;;;;;4.70;2.30;;;20.60;99.90;;;-141.84;38.36;20230.50;5012277;28;20298;-59
2022/06/13 07:55:38;;;;;;;6.93;2.78;;;20.40;99.90;;;-141.84;38.66;20218.31;5011502;28;20245;-59
2022/06/13 07:58:17;;;;;;;6.50;2.13;;;20.30;99.90;;;-141.84;38.01;20252.84;5011799;28;20230;-60
2022/06/13 08:00:49;;;;;;;3.78;2.20;;;20.60;99.90;;;-141.84;38.97;20228.47;5010983;28;20222;-60
2022/06/13 08:03:23;;;;;;;3.95;2.10;;;20.60;99.90;;;-141.84;38.73;20252.84;4991543;28;20798;-62
2022/06/13 08:05:53;;;;;;;5.50;2.28;;;20.70;99.90;;;-141.84;39.44;20289.44;4991599;28;20636;-60
2022/06/13 08:08:21;;;;;;;4.05;2.20;;;20.90;99.90;;;-141.84;37.86;20301.63;4992417;28;20207;-62
2022/06/13 08:10:52;;;;;;;6.05;2.25;;;20.80;99.90;;;-141.84;38.03;20291.47;4991205;28;20235;-60
2022/06/13 08:13:24;;;;;;;4.88;2.38;;;20.70;99.90;;;-141.84;37.98;20275.22;4991400;28;20685;-60
2022/06/13 08:15:53;;;;;;;4.82;2.00;;;20.50;99.90;;;-141.84;38.11;20242.69;4991458;28;20310;-59
2022/06/13 08:18:21;;;;;;;3.45;2.05;;;20.50;99.90;;;-141.84;38.70;20226.44;4991243;28;20719;-60
2022/06/13 08:20:51;;;;;;;4.32;1.90;;;20.30;99.90;;;-141.84;39.00;20218.31;4991599;28;20211;-59
2022/06/13 08:23:22;;;;;;;5.10;2.30;;;20.50;99.90;;;-141.84;38.44;20224.41;4992564;28;20576;-61
2022/06/13 08:25:51;;;;;;;5.03;2.38;;;20.50;99.90;;;-141.84;38.80;20216.25;5010847;28;20262;-60
2022/06/13 08:28:21;;;;;;;6.22;2.55;;;20.50;99.90;;;-141.84;39.01;20210.16;5011052;28;20236;-60
2022/06/13 08:30:56;;;;;;;6.70;2.33;;;20.30;99.90;;;-141.84;39.87;20179.69;5010980;28;20287;-61
2022/06/13 08:33:25;;;;;;;6.75;2.47;;;20.30;99.90;;;-141.84;40.38;20155.28;5010792;28;20668;-59
2022/06/13 08:35:54;;;;;;;8.68;2.42;;;20.20;99.90;;;-141.84;40.10;20114.63;5010725;28;20194;-60
2022/06/13 08:38:24;;;;;;;5.35;2.28;;;19.90;99.90;;;-141.84;40.64;20084.16;5011446;28;20293;-58
2022/06/13 08:41:05;;;;;;;3.10;2.00;;;19.90;99.90;;;-141.84;40.54;20114.63;5010423;28;20708;-59
2022/06/13 08:44:08;;;;;;;5.63;2.30;;;20.10;99.90;;;-141.84;39.61;20179.69;4997450;28;20318;-60
2022/06/13 08:46:50;;;;;;;6.63;2.63;;;20.10;99.90;;;-141.84;40.29;20112.59;4991002;28;20255;-61
2022/06/13 08:49:33;;;;;;;5.55;2.35;;;20.20;99.90;;;-141.84;39.57;20222.38;4990876;28;20635;-60
2022/06/13 08:52:23;;;;;;;5.13;2.28;;;20.40;99.90;;;-141.84;38.69;20309.75;4991037;28;20611;-59
2022/06/13 08:55:10;;;;;;;5.10;2.20;;;20.70;99.90;;;-141.84;38.00;20395.13;4990977;28;20597;-60
2022/06/13 08:57:45;;;;;;;6.57;2.58;;;21.00;99.90;;;-141.84;37.33;20352.44;4996252;28;20768;-60
2022/06/13 09:00:22;;;;;;;3.83;2.28;;;21.20;99.90;;;-141.84;37.07;20372.78;5010867;28;20292;-60
2022/06/13 09:03:00;;;;;;;4.65;2.03;;;21.20;99.90;;;-141.84;37.07;20380.91;5010491;28;20249;-61
2022/06/13 09:05:35;;;;;;;4.05;2.35;;;21.20;99.90;;;-141.84;37.22;20354.47;5011407;28;20187;-60
2022/06/13 09:08:17;;;;;;;6.32;2.30;;;21.10;99.90;;;-141.84;37.38;20295.53;5030941;28;20623;-60
2022/06/13 09:10:56;;;;;;;3.60;2.10;;;20.80;99.90;;;-141.84;37.74;20311.78;5030213;28;20312;-59
2022/06/13 09:13:35;;;;;;;4.22;2.38;;;20.80;99.90;;;-141.84;37.76;20246.75;5030022;28;20229;-60
2022/06/13 09:16:13;;;;;;;5.60;2.45;;;20.60;99.90;;;-141.84;37.98;20258.94;5030146;28;20660;-60
2022/06/13 09:18:50;;;;;;;4.45;2.08;;;20.40;99.90;;;-141.84;38.21;20230.50;5029796;28;20581;-60
2022/06/13 09:21:30;;;;;;;6.70;2.22;;;20.30;99.90;;;-141.84;38.95;20149.19;5015113;28;20328;-61
2022/06/13 09:24:11;;;;;;;4.28;2.17;;;20.10;99.90;;;-141.84;39.33;20130.91;5010600;28;20305;-60
2022/06/13 09:26:47;;;;;;;3.80;1.67;;;20.10;99.90;;;-141.84;38.84;20177.66;5010669;28;20313;-60
2022/06/13 09:29:24;;;;;;;4.63;2.28;;;20.00;99.90;;;-141.84;38.70;20193.91;5010677;28;20583;-60
2022/06/13 09:32:01;;;;;;;7.50;2.22;;;19.80;99.90;;;-141.84;38.98;20193.91;5029561;28;20225;-59
2022/06/13 09:34:39;;;;;;;4.85;2.65;;;19.90;99.90;;;-141.84;38.85;20151.22;5029816;28;20226;-60
2022/06/13 09:37:12;;;;;;;7.35;2.78;;;19.80;99.90;;;-141.84;39.25;20151.22;5029260;28;20697;-60
2022/06/13 09:39:42;;;;;;;5.55;2.20;;;19.80;99.90;;;-141.84;40.12;20157.31;5018478;28;20232;-59
2022/06/13 09:42:53;;;;;;;5.20;2.53;;;19.90;99.90;;;-141.84;39.29;20179.69;5009874;28;20904;-60
2022/06/13 09:45:53;;;;;;;4.70;2.50;;;20.00;99.90;;;-141.84;38.80;20269.13;5010164;28;20347;-60
2022/06/13 09:48:38;;;;;;;7.22;2.38;;;20.10;99.90;;;-141.84;38.90;20228.47;5029568;28;20237;-58
2022/06/13 09:51:23;;;;;;;3.88;2.20;;;20.40;99.90;;;-141.84;38.81;20263.00;5016245;28;20225;-60
2022/06/13 09:54:08;;;;;;;5.13;2.35;;;20.40;99.90;;;-141.84;39.17;20248.78;5012175;28;20293;-60
2022/06/13 09:56:51;;;;;;;4.63;2.42;;;20.40;99.90;;;-141.84;39.02;20250.81;5014472;28;20195;-59
2022/06/13 09:59:55;;;;;;;4.30;2.28;;;20.60;99.90;;;-141.84;38.35;20291.47;5014055;28;20211;-59
2022/06/13 10:02:31;;;;;;;4.57;2.33;;;20.70;99.90;;;-141.84;39.26;20204.06;5013829;28;20245;-61
2022/06/13 10:05:29;;;;;;;6.57;2.70;;;20.30;99.90;;;-141.84;40.23;20147.16;5013233;28;20238;-59
2022/06/13 10:08:38;;;;;;;6.65;2.30;;;20.10;99.90;;;-141.84;40.41;20080.09;5013345;28;20309;-60
2022/06/13 10:11:30;;;;;;;5.95;3.33;;;20.00;99.90;;;-141.84;41.44;20015.03;4994102;28;20290;-63
2022/06/13 10:14:29;;;;;;;5.75;2.50;;;19.60;99.90;;;-141.84;41.62;20059.75;5012648;28;20219;-58
2022/06/13 10:17:23;;;;;;;5.32;2.67;;;19.40;99.90;;;-141.84;42.55;19966.28;5010186;28;20254;-60
2022/06/13 10:20:06;;;;;;;4.88;2.10;;;19.10;99.90;;;-141.84;43.02;19939.84;5012826;28;20292;-59
2022/06/13 10:22:49;;;;;;;5.43;2.53;;;19.00;99.90;;;-141.84;43.42;19927.66;5012945;28;20272;-59
2022/06/13 10:25:41;;;;;;;3.75;2.42;;;18.90;99.90;;;-141.84;44.40;19848.38;5012750;28;20698;-60
2022/06/13 10:28:38;;;;;;;6.47;2.53;;;18.70;99.90;;;-141.84;45.24;19848.38;5012957;28;20231;-60
2022/06/13 10:31:26;;;;;;;6.10;2.70;;;18.60;99.90;;;-141.84;47.86;19797.59;5012897;28;20230;-59
2022/06/13 10:34:08;;;;;;;3.03;2.20;;;18.50;99.90;;;-141.84;48.23;19742.72;5012868;28;20226;-60
2022/06/13 10:36:57;;;;;;;6.22;2.60;;;18.50;99.90;;;-141.84;51.87;19663.44;5012572;28;20355;-59
2022/06/13 10:39:27;;;;;;;7.78;3.13;;;18.40;99.90;;;-141.84;51.47;19637.03;5012830;28;20223;-59
2022/06/13 10:42:05;;;;;;;6.93;2.50;;;18.10;99.90;;;-141.84;55.15;19525.25;5012756;28;20702;-60
2022/06/13 10:44:34;;;;;;;8.63;2.78;;;17.80;99.90;;;-141.84;56.40;19472.41;5013370;28;20615;-60
2022/06/13 10:47:13;;;;;;;5.43;3.00;;;17.50;99.90;;;-141.84;62.68;19326.09;5012968;28;20605;-60
2022/06/13 10:49:48;;;;;;;4.82;2.45;;;17.10;99.90;;;-141.84;61.63;19320.00;5014271;28;20848;-60
2022/06/13 10:52:24;;;;;;;4.15;2.83;;;16.60;99.90;;;-141.84;63.68;19236.69;5032675;28;20264;-60
2022/06/13 10:54:58;;;;;;;3.53;2.30;;;16.30;99.90;;;-141.84;67.38;19155.41;5032639;28;20304;-59
2022/06/13 10:57:32;;;;;;;6.45;2.50;;;16.00;99.90;;;-141.84;70.12;19104.59;5032377;28;20280;-60